Time;durP1;ratioP1;P1;durP2;ratioP2;P2;SDS_P1;SDS_P2;PMS_P1;PMS_P2;Temp;Humidity;BMP_temperature;BMP_pressure;BME280_temperature;BME280_humidity;BME280_pressure;Samples;Min_cycle;Max_cycle;Signal;HPM_P1;HPM_P2
2021/08/27 00:00:26;;;;;;;6.20;3.70;;;;;;;13.37;92.71;96499.97;5009783;28;20451;-63
2021/08/27 00:02:51;;;;;;;9.98;4.90;;;;;;;13.24;93.37;96495.22;5007392;28;20048;-62
2021/08/27 00:05:17;;;;;;;8.60;4.07;;;;;;;13.13;94.10;96495.19;5005076;28;20586;-63
2021/08/27 00:07:42;;;;;;;6.68;3.78;;;;;;;13.10;94.83;96498.72;5018167;28;20510;-63
2021/08/27 00:10:08;;;;;;;7.50;4.43;;;;;;;13.08;94.65;96492.81;5005037;28;20438;-61
2021/08/27 00:12:35;;;;;;;9.93;4.45;;;;;;;13.05;94.81;96497.13;5012555;28;20072;-63
2021/08/27 00:15:01;;;;;;;6.88;3.60;;;;;;;13.09;95.16;96489.69;4996043;28;20042;-63
2021/08/27 00:17:30;;;;;;;6.43;3.83;;;;;;;13.11;95.17;96494.78;4985493;28;20053;-62
2021/08/27 00:19:57;;;;;;;11.48;4.50;;;;;;;12.90;94.81;96487.25;5026411;28;20410;-64
2021/08/27 00:22:23;;;;;;;7.30;3.85;;;;;;;12.68;96.84;96486.38;5003653;28;20037;-63
2021/08/27 00:24:48;;;;;;;7.20;4.03;;;;;;;12.64;97.27;96486.38;5017917;28;20038;-62
2021/08/27 00:27:14;;;;;;;7.25;4.00;;;;;;;12.69;97.75;96491.47;5004953;28;20489;-63
2021/08/27 00:29:39;;;;;;;10.48;5.07;;;;;;;12.51;97.82;96483.13;5006552;28;20045;-62
2021/08/27 00:32:05;;;;;;;7.57;4.00;;;;;;;12.40;98.77;96476.81;5011182;28;20049;-61
2021/08/27 00:34:30;;;;;;;8.70;3.85;;;;;;;12.42;99.78;96486.25;5034583;28;20052;-63
2021/08/27 00:36:55;;;;;;;7.65;4.40;;;;;;;12.40;99.76;96485.03;5020638;28;20042;-63
2021/08/27 00:39:21;;;;;;;7.50;4.32;;;;;;;12.26;100.00;96479.47;5003750;28;20794;-63
2021/08/27 00:41:46;;;;;;;6.50;4.47;;;;;;;12.32;100.00;96480.69;5001776;28;20042;-63
2021/08/27 00:44:12;;;;;;;6.72;4.30;;;;;;;12.19;100.00;96477.47;5013663;28;20041;-61
2021/08/27 00:46:37;;;;;;;6.70;4.10;;;;;;;12.23;100.00;96479.06;5023224;28;20565;-62
2021/08/27 00:49:02;;;;;;;8.60;4.45;;;;;;;12.29;100.00;96476.75;4995687;28;20057;-62
2021/08/27 00:51:28;;;;;;;8.15;4.80;;;;;;;12.33;100.00;96477.53;5002776;28;20500;-63
2021/08/27 00:53:54;;;;;;;8.73;4.43;;;;;;;12.33;100.00;96477.53;5011199;28;20038;-62
2021/08/27 00:56:19;;;;;;;7.60;4.18;;;;;;;12.35;100.00;96472.47;5002536;28;20045;-63
2021/08/27 00:58:45;;;;;;;9.35;4.15;;;;;;;12.21;98.92;96470.44;5003862;28;20038;-64
2021/08/27 01:01:10;;;;;;;9.73;4.20;;;;;;;12.05;98.63;96469.94;4997815;28;20627;-63
2021/08/27 01:03:36;;;;;;;7.32;4.15;;;;;;;12.00;99.68;96468.31;5001512;28;20050;-63
2021/08/27 01:06:08;;;;;;;6.03;3.80;;;;;;;11.97;100.00;96466.34;5000825;28;20482;-62
2021/08/27 01:08:44;;;;;;;6.78;4.55;;;;;;;11.92;100.00;96463.97;5000216;28;20135;-63
2021/08/27 01:11:30;;;;;;;7.35;4.30;;;;;;;11.83;100.00;96461.50;4997528;28;20041;-63
2021/08/27 01:14:06;;;;;;;8.98;4.50;;;;;;;11.61;100.00;96471.53;5021554;28;20107;-65
2021/08/27 01:16:41;;;;;;;8.15;4.57;;;;;;;11.44;100.00;96469.41;5020630;28;20052;-65
2021/08/27 01:19:43;;;;;;;6.88;4.18;;;;;;;11.32;100.00;96461.47;5016429;28;20077;-62
2021/08/27 01:22:23;;;;;;;9.35;4.60;;;;;;;11.40;100.00;96463.13;5016798;28;20088;-65
2021/08/27 01:24:51;;;;;;;12.70;5.80;;;;;;;11.31;100.00;96462.63;5021911;28;20502;-65
2021/08/27 01:27:18;;;;;;;8.65;5.18;;;;;;;11.20;100.00;96454.28;5013541;28;20136;-65
2021/08/27 01:30:01;;;;;;;8.73;4.22;;;;;;;11.06;100.00;96458.47;5003712;28;20045;-64
2021/08/27 01:32:53;;;;;;;7.55;3.80;;;;;;;11.06;100.00;96458.47;4998664;28;20450;-64
2021/08/27 01:35:18;;;;;;;12.13;4.95;;;;;;;11.25;100.00;96467.66;5014607;28;20033;-64
2021/08/27 01:37:52;;;;;;;6.93;4.38;;;;;;;11.30;100.00;96461.84;5001804;28;20526;-65
2021/08/27 01:40:23;;;;;;;9.00;4.57;;;;;;;11.25;100.00;96468.47;4994428;28;20045;-64
2021/08/27 01:42:51;;;;;;;7.07;4.38;;;;;;;11.08;100.00;96477.28;5002099;28;20077;-65
2021/08/27 01:45:19;;;;;;;8.40;4.93;;;;;;;10.96;100.00;96475.56;4993497;28;20039;-63
2021/08/27 01:47:45;;;;;;;10.48;5.10;;;;;;;10.75;100.00;96484.34;5001077;28;20046;-63
2021/08/27 01:50:13;;;;;;;12.40;5.68;;;;;;;10.76;100.00;96485.13;4994195;28;20087;-62
2021/08/27 01:52:39;;;;;;;8.75;4.78;;;;;;;10.76;100.00;96483.19;4996038;28;20052;-65
2021/08/27 01:55:07;;;;;;;8.40;5.18;;;;;;;10.82;100.00;96483.63;5002212;28;20128;-62
2021/08/27 01:57:34;;;;;;;8.13;4.75;;;;;;;10.81;100.00;96493.03;5005924;28;20111;-65
2021/08/27 02:00:00;;;;;;;9.40;5.18;;;;;;;10.83;100.00;96482.47;5009739;28;20046;-64
2021/08/27 02:02:27;;;;;;;8.73;4.70;;;;;;;10.88;100.00;96482.94;4993936;28;20100;-64
2021/08/27 02:04:56;;;;;;;9.18;5.13;;;;;;;11.03;100.00;96483.09;5001962;28;20100;-64
2021/08/27 02:07:22;;;;;;;;;;;;;;;11.26;100.00;96478.25;4997327;28;20437;-64
2021/08/27 02:09:52;;;;;;;9.18;4.85;;;;;;;11.08;100.00;96478.06;5003455;28;20016;-64
2021/08/27 02:12:18;;;;;;;7.30;4.93;;;;;;;11.03;100.00;96481.13;5004525;28;20099;-64
2021/08/27 02:14:45;;;;;;;8.50;4.38;;;;;;;10.86;100.00;96481.75;4981659;28;20054;-63
2021/08/27 02:17:10;;;;;;;6.40;4.32;;;;;;;10.86;100.00;96489.97;4976265;28;20038;-65
2021/08/27 02:19:37;;;;;;;8.48;4.63;;;;;;;10.88;100.00;96491.16;5004389;28;20041;-64
2021/08/27 02:22:07;;;;;;;8.02;5.10;;;;;;;10.84;100.00;96484.03;5011973;28;20049;-63
2021/08/27 02:24:41;;;;;;;8.95;5.10;;;;;;;10.82;100.00;96481.69;5006603;28;20045;-65
2021/08/27 02:27:08;;;;;;;9.90;5.20;;;;;;;10.67;100.00;96482.69;5013908;28;20049;-64
2021/08/27 02:29:38;;;;;;;9.00;5.22;;;;;;;10.61;100.00;96481.44;4995780;28;20052;-64
2021/08/27 02:32:06;;;;;;;9.02;5.00;;;;;;;10.58;100.00;96479.44;5020314;28;20049;-63
2021/08/27 02:34:34;;;;;;;7.53;4.65;;;;;;;10.76;100.00;96483.19;5025542;28;20526;-64
2021/08/27 02:37:02;;;;;;;8.88;5.22;;;;;;;10.74;100.00;96484.72;5023453;28;20046;-64
2021/08/27 02:39:28;;;;;;;9.05;5.03;;;;;;;10.66;100.00;96487.38;5005517;28;20060;-63
2021/08/27 02:41:55;;;;;;;8.80;5.13;;;;;;;10.64;100.00;96484.22;5014718;28;20406;-64
2021/08/27 02:44:20;;;;;;;9.18;4.78;;;;;;;10.76;100.00;96482.41;5012409;28;20128;-64
2021/08/27 02:46:46;;;;;;;9.77;4.88;;;;;;;10.63;100.00;96481.84;5026670;28;20077;-64
2021/08/27 02:49:12;;;;;;;7.78;4.90;;;;;;;10.42;100.00;96474.91;5009828;28;20448;-63
2021/08/27 02:51:43;;;;;;;7.18;4.93;;;;;;;10.29;100.00;96474.31;5016942;28;20037;-64
2021/08/27 02:54:15;;;;;;;22.02;12.40;;;;;;;10.16;100.00;96489.41;4989811;28;20048;-64
2021/08/27 02:56:42;;;;;;;11.93;6.60;;;;;;;10.14;100.00;96489.00;4986255;28;20034;-65
2021/08/27 02:59:14;;;;;;;12.70;5.55;;;;;;;10.15;100.00;96487.81;5006420;28;20081;-64
2021/08/27 03:01:50;;;;;;;8.93;4.95;;;;;;;10.22;100.00;96485.19;5006218;28;20124;-63
2021/08/27 03:04:29;;;;;;;8.52;4.57;;;;;;;10.39;100.00;96480.34;4995111;28;20494;-64
2021/08/27 03:07:05;;;;;;;10.90;5.43;;;;;;;10.51;100.00;96486.41;5003389;28;20137;-64
2021/08/27 03:09:39;;;;;;;9.50;4.85;;;;;;;10.65;100.00;96476.78;5011434;28;20056;-64
2021/08/27 03:12:06;;;;;;;8.57;4.70;;;;;;;10.76;100.00;96482.41;5001358;28;20045;-64
2021/08/27 03:14:38;;;;;;;8.88;4.95;;;;;;;10.78;100.00;96489.06;5010051;28;20049;-64
2021/08/27 03:17:09;;;;;;;10.57;4.60;;;;;;;10.63;100.00;96488.09;5012116;28;20045;-63
2021/08/27 03:19:54;;;;;;;8.55;4.90;;;;;;;10.40;100.00;96484.69;5016141;28;20378;-65
2021/08/27 03:22:30;;;;;;;13.60;5.68;;;;;;;10.33;100.00;96485.34;5006388;28;20120;-65
2021/08/27 03:25:02;;;;;;;10.75;5.38;;;;;;;10.37;100.00;96471.72;5008266;28;20073;-64
2021/08/27 03:27:34;;;;;;;9.07;4.95;;;;;;;10.58;100.00;96479.44;5007262;28;20494;-64
2021/08/27 03:30:06;;;;;;;8.30;5.20;;;;;;;10.69;100.00;96470.16;5011613;28;20472;-63
2021/08/27 03:32:32;;;;;;;12.70;5.15;;;;;;;10.73;100.00;96463.97;5018753;28;20110;-63
2021/08/27 03:34:58;;;;;;;8.32;4.90;;;;;;;10.73;100.00;96462.00;5007141;28;20042;-66
2021/08/27 03:37:25;;;;;;;7.50;4.93;;;;;;;10.73;100.00;96475.69;5024272;28;20123;-65
2021/08/27 03:39:51;;;;;;;9.02;5.60;;;;;;;10.81;100.00;96477.38;5015996;28;20081;-65
2021/08/27 03:42:18;;;;;;;9.00;5.03;;;;;;;10.90;100.00;96486.09;4999409;28;20042;-64
2021/08/27 03:44:46;;;;;;;10.18;5.18;;;;;;;10.88;100.00;96480.19;5011333;28;20041;-64
2021/08/27 03:47:14;;;;;;;9.65;5.30;;;;;;;11.00;100.00;96490.13;5014216;28;20051;-65
2021/08/27 03:49:40;;;;;;;10.50;4.85;;;;;;;11.13;100.00;96479.69;5013902;28;20057;-64
2021/08/27 03:52:06;;;;;;;9.20;5.05;;;;;;;11.21;100.00;96484.06;5002821;28;20057;-65
2021/08/27 03:54:33;;;;;;;8.57;4.68;;;;;;;11.24;100.00;96496.25;5027671;28;20029;-65
2021/08/27 03:57:04;;;;;;;8.45;4.45;;;;;;;11.23;100.00;96494.66;5014074;28;20041;-64
2021/08/27 03:59:30;;;;;;;8.93;4.70;;;;;;;11.23;100.00;96494.66;4986494;28;20073;-64
2021/08/27 04:01:57;;;;;;;9.50;4.45;;;;;;;11.23;100.00;96494.66;5008624;28;20050;-64
2021/08/27 04:04:23;;;;;;;11.60;4.93;;;;;;;11.26;100.00;96491.97;5000798;28;20051;-64
2021/08/27 04:06:57;;;;;;;9.82;5.32;;;;;;;11.22;100.00;96490.34;5012036;28;20124;-65
2021/08/27 04:09:23;;;;;;;9.15;5.13;;;;;;;11.15;100.00;96484.81;4998063;28;20536;-65
2021/08/27 04:11:50;;;;;;;8.80;5.07;;;;;;;11.21;100.00;96491.50;5002586;28;20137;-64
2021/08/27 04:14:16;;;;;;;10.32;5.20;;;;;;;11.19;100.00;96491.88;5006291;28;20572;-65
2021/08/27 04:16:43;;;;;;;8.68;4.82;;;;;;;11.19;100.00;96488.34;5012367;28;20041;-65
2021/08/27 04:19:08;;;;;;;14.30;5.50;;;;;;;11.09;100.00;96492.53;5006544;28;20045;-64
2021/08/27 04:21:34;;;;;;;10.10;5.80;;;;;;;11.08;100.00;96489.03;5005057;28;20054;-63
2021/08/27 04:23:59;;;;;;;9.55;5.03;;;;;;;11.02;100.00;96492.47;4994809;28;20132;-63
2021/08/27 04:26:24;;;;;;;11.13;5.55;;;;;;;11.07;100.00;96492.94;4982004;28;20050;-63
2021/08/27 04:28:50;;;;;;;11.48;5.53;;;;;;;11.08;100.00;96496.47;5006191;28;20104;-63
2021/08/27 04:31:15;;;;;;;10.40;5.30;;;;;;;10.90;100.00;96494.31;4982647;28;20388;-63
2021/08/27 04:33:41;;;;;;;8.75;4.90;;;;;;;11.06;100.00;96499.56;5007403;28;20505;-65
2021/08/27 04:36:06;;;;;;;11.57;5.03;;;;;;;11.16;100.00;96489.09;5004771;28;20050;-63
2021/08/27 04:38:31;;;;;;;9.52;5.00;;;;;;;11.12;100.00;96496.50;5011702;28;20450;-63
2021/08/27 04:40:57;;;;;;;9.10;5.10;;;;;;;10.98;100.00;96491.66;5009884;28;20073;-63
2021/08/27 04:43:22;;;;;;;11.13;5.60;;;;;;;10.88;100.00;96499.38;5011458;28;20078;-63
2021/08/27 04:45:48;;;;;;;8.57;4.78;;;;;;;10.80;100.00;96497.69;5013360;28;20410;-63
2021/08/27 04:48:13;;;;;;;12.05;5.10;;;;;;;10.77;100.00;96500.38;5009039;28;20057;-64
2021/08/27 04:50:39;;;;;;;9.32;5.22;;;;;;;10.83;100.00;96501.66;5018385;28;20065;-66
2021/08/27 04:53:04;;;;;;;9.80;5.13;;;;;;;10.93;100.00;96506.47;5000734;28;20072;-63
2021/08/27 04:55:29;;;;;;;11.07;5.65;;;;;;;10.97;100.00;96512.00;5013363;28;20398;-64
2021/08/27 04:57:55;;;;;;;8.00;4.57;;;;;;;11.06;100.00;96517.97;5000545;28;20056;-64
2021/08/27 05:00:20;;;;;;;12.40;4.70;;;;;;;11.03;100.00;96518.72;5002156;28;20042;-64
2021/08/27 05:02:46;;;;;;;9.95;4.97;;;;;;;11.27;100.00;96522.91;5010477;28;20053;-64
2021/08/27 05:05:11;;;;;;;8.23;4.45;;;;;;;11.31;99.59;96521.00;4983216;28;20060;-64
2021/08/27 05:07:37;;;;;;;10.07;5.05;;;;;;;11.25;99.97;96519.75;5006340;28;20084;-64
2021/08/27 05:10:02;;;;;;;10.10;5.38;;;;;;;11.08;100.00;96515.66;5002953;28;20050;-63
2021/08/27 05:12:28;;;;;;;13.35;4.80;;;;;;;11.10;100.00;96522.31;5010536;28;20092;-65
2021/08/27 05:14:54;;;;;;;14.52;5.93;;;;;;;11.18;100.00;96531.44;5006880;28;20145;-65
2021/08/27 05:17:19;;;;;;;10.20;5.55;;;;;;;11.30;100.00;96524.91;4999387;28;20426;-65
2021/08/27 05:19:45;;;;;;;12.13;5.38;;;;;;;11.24;100.00;96527.19;4988128;28;20063;-65
2021/08/27 05:22:10;;;;;;;10.45;5.53;;;;;;;10.64;100.00;96530.78;5008990;28;20088;-65
2021/08/27 05:24:35;;;;;;;11.82;5.72;;;;;;;10.52;100.00;96542.75;5011002;28;20401;-66
2021/08/27 05:27:01;;;;;;;13.60;6.53;;;;;;;10.44;100.00;96540.25;5009833;28;20107;-64
2021/08/27 05:29:26;;;;;;;14.32;7.75;;;;;;;10.53;100.00;96529.81;4986689;28;20116;-64
2021/08/27 05:31:52;;;;;;;13.35;6.57;;;;;;;10.57;100.00;96529.88;5011572;28;20045;-64
2021/08/27 05:34:19;;;;;;;8.73;5.47;;;;;;;10.71;100.00;96532.81;4987162;28;20497;-64
2021/08/27 05:36:45;;;;;;;11.25;5.55;;;;;;;10.80;100.00;96527.84;5013753;28;20033;-64
2021/08/27 05:39:10;;;;;;;11.63;5.38;;;;;;;10.77;100.00;96530.53;5008060;28;20185;-65
2021/08/27 05:41:36;;;;;;;9.23;5.18;;;;;;;10.86;100.00;96528.31;5005854;28;20136;-64
2021/08/27 05:44:02;;;;;;;11.00;5.72;;;;;;;10.94;100.00;96527.22;5015612;28;20155;-64
2021/08/27 05:46:27;;;;;;;11.60;5.10;;;;;;;11.20;100.00;96523.63;5017734;28;20132;-65
2021/08/27 05:48:53;;;;;;;8.73;5.07;;;;;;;11.44;100.00;96522.28;5014677;28;20133;-64
2021/08/27 05:51:18;;;;;;;9.57;5.20;;;;;;;11.65;100.00;96521.72;5012243;28;20037;-64
2021/08/27 05:53:44;;;;;;;8.32;4.70;;;;;;;11.95;99.60;96525.53;5020816;28;20454;-62
2021/08/27 05:56:09;;;;;;;8.98;4.63;;;;;;;12.23;97.64;96527.72;5006099;28;20394;-64
2021/08/27 05:58:34;;;;;;;9.50;4.25;;;;;;;12.01;98.23;96538.53;5012713;28;20048;-63
2021/08/27 06:01:00;;;;;;;9.18;4.60;;;;;;;11.91;99.85;96532.94;5008908;28;20128;-64
2021/08/27 06:03:25;;;;;;;9.77;4.32;;;;;;;12.10;98.69;96542.88;4994521;28;20045;-64
2021/08/27 06:05:51;;;;;;;12.23;5.63;;;;;;;12.10;97.43;96540.16;5012739;28;20045;-64
2021/08/27 06:08:16;;;;;;;8.55;4.95;;;;;;;12.29;98.05;96542.66;4995962;28;20099;-64
2021/08/27 06:10:41;;;;;;;9.05;4.32;;;;;;;12.63;95.80;96545.22;5001510;28;20038;-65
2021/08/27 06:13:07;;;;;;;8.00;4.20;;;;;;;12.99;92.96;96546.19;4997570;28;20133;-65
2021/08/27 06:15:32;;;;;;;8.20;4.15;;;;;;;13.11;91.77;96547.81;5002104;28;20037;-64
2021/08/27 06:17:58;;;;;;;12.05;4.25;;;;;;;13.20;90.58;96550.22;5014745;28;20038;-65
2021/08/27 06:20:23;;;;;;;16.50;4.95;;;;;;;13.33;90.49;96547.94;5004315;28;20121;-65
2021/08/27 06:22:49;;;;;;;8.07;4.32;;;;;;;13.31;90.85;96553.81;5002431;28;20045;-65
2021/08/27 06:25:15;;;;;;;6.72;3.65;;;;;;;13.33;90.17;96556.97;5000476;28;20042;-64
2021/08/27 06:27:40;;;;;;;11.90;4.28;;;;;;;13.38;89.83;96559.34;5000560;28;20124;-65
2021/08/27 06:30:07;;;;;;;11.82;4.25;;;;;;;13.35;90.84;96560.09;5000776;28;20506;-64
2021/08/27 06:32:33;;;;;;;8.80;4.10;;;;;;;13.33;92.32;96561.69;5007610;28;20038;-64
2021/08/27 06:34:58;;;;;;;7.35;4.22;;;;;;;13.37;92.36;96566.00;5006732;28;20054;-64
2021/08/27 06:38:21;;;;;;;9.20;4.15;;;;;;;13.51;91.94;96557.00;5005163;28;20037;-64
2021/08/27 06:40:11;;;;;;;7.50;4.10;;;;;;;13.86;89.39;96555.47;5005604;28;20463;-65
2021/08/27 06:42:37;;;;;;;9.30;3.80;;;;;;;13.94;89.80;96554.31;4991090;28;20052;-65
2021/08/27 06:45:03;;;;;;;8.35;4.15;;;;;;;13.90;90.22;96559.06;5006098;28;20544;-65
2021/08/27 06:47:29;;;;;;;10.05;4.10;;;;;;;13.74;90.19;96564.16;5010840;28;20054;-65
2021/08/27 06:49:54;;;;;;;11.98;3.85;;;;;;;13.67;91.49;96564.91;5004530;28;20056;-65
2021/08/27 06:52:19;;;;;;;7.80;3.72;;;;;;;13.87;90.53;96561.81;5012196;28;20041;-66
2021/08/27 06:54:45;;;;;;;7.60;3.70;;;;;;;14.28;88.19;96561.44;5009096;28;20049;-66
2021/08/27 06:57:10;;;;;;;8.30;3.28;;;;;;;14.37;86.24;96561.81;5004847;28;20053;-66
2021/08/27 06:59:35;;;;;;;7.28;3.35;;;;;;;14.59;85.24;96562.59;5000641;28;20494;-65
2021/08/27 07:02:01;;;;;;;6.97;3.95;;;;;;;14.75;84.85;96562.19;5008751;28;20037;-66
2021/08/27 07:04:26;;;;;;;6.28;3.40;;;;;;;14.80;84.13;96572.00;4990906;28;20042;-66
2021/08/27 07:06:52;;;;;;;5.70;3.25;;;;;;;14.86;83.30;96573.19;5007605;28;20050;-65
2021/08/27 07:09:17;;;;;;;10.13;3.05;;;;;;;14.94;83.16;96574.72;5002272;28;20045;-67
2021/08/27 07:11:42;;;;;;;7.80;3.55;;;;;;;15.03;82.20;96577.84;5005011;28;20122;-66
2021/08/27 07:14:10;;;;;;;8.70;2.95;;;;;;;15.13;80.92;96572.72;5003330;28;20141;-66
2021/08/27 07:16:35;;;;;;;9.48;3.33;;;;;;;15.03;81.10;96572.31;5002693;28;20099;-66
2021/08/27 07:19:00;;;;;;;6.45;3.35;;;;;;;15.10;80.68;96577.81;5008726;28;20038;-65
2021/08/27 07:21:26;;;;;;;7.60;3.40;;;;;;;15.11;81.04;96575.88;4999612;28;20104;-66
2021/08/27 07:23:51;;;;;;;7.28;3.47;;;;;;;15.03;80.91;96577.06;5007646;28;20111;-66
2021/08/27 07:26:16;;;;;;;10.68;3.53;;;;;;;15.10;81.29;96568.75;5002779;28;20042;-66
2021/08/27 07:28:42;;;;;;;10.98;3.75;;;;;;;15.04;80.87;96567.59;5015069;28;20049;-67
2021/08/27 07:31:07;;;;;;;7.97;3.47;;;;;;;15.15;80.60;96570.34;5003588;28;20045;-67
2021/08/27 07:33:33;;;;;;;9.00;3.53;;;;;;;15.15;81.03;96571.09;5011237;28;20052;-65
2021/08/27 07:35:58;;;;;;;9.25;3.45;;;;;;;15.16;80.47;96586.47;5009717;28;20041;-65
2021/08/27 07:38:24;;;;;;;6.22;3.22;;;;;;;15.19;80.01;96588.44;4997819;28;20050;-65
2021/08/27 07:40:50;;;;;;;8.07;3.05;;;;;;;15.05;80.65;96575.50;5007313;28;20045;-66
2021/08/27 07:43:15;;;;;;;10.15;3.40;;;;;;;15.01;79.95;96584.94;5005119;28;20080;-66
2021/08/27 07:45:41;;;;;;;7.40;3.17;;;;;;;15.09;79.49;96587.28;5015936;28;20490;-66
2021/08/27 07:48:06;;;;;;;8.45;3.00;;;;;;;15.06;78.72;96592.81;5016693;28;20081;-65
2021/08/27 07:50:32;;;;;;;9.43;3.92;;;;;;;15.06;79.35;96592.81;5014914;28;20363;-67
2021/08/27 07:52:57;;;;;;;8.38;3.25;;;;;;;15.34;77.88;96599.41;5011095;28;20081;-66
2021/08/27 07:55:22;;;;;;;7.85;3.60;;;;;;;15.34;77.18;96600.22;5000271;28;20824;-66
2021/08/27 07:57:48;;;;;;;6.20;2.85;;;;;;;15.47;77.11;96604.09;5008987;28;20041;-67
2021/08/27 08:00:13;;;;;;;10.63;3.13;;;;;;;15.51;76.58;96604.06;5002066;28;20081;-67
2021/08/27 08:02:39;;;;;;;11.05;3.58;;;;;;;15.56;77.00;96606.41;5010662;28;20095;-67
2021/08/27 08:05:05;;;;;;;8.02;2.95;;;;;;;15.65;76.44;96612.28;5001907;28;20116;-65
2021/08/27 08:07:31;;;;;;;7.03;3.20;;;;;;;15.81;75.83;96613.78;5003209;28;20065;-66
2021/08/27 08:09:56;;;;;;;8.30;3.45;;;;;;;15.92;75.79;96610.97;5003102;28;20089;-66
2021/08/27 08:12:21;;;;;;;5.53;2.80;;;;;;;16.03;75.75;96615.25;4997087;28;20704;-67
2021/08/27 08:14:47;;;;;;;5.63;3.25;;;;;;;15.98;76.73;96614.91;4999662;28;20045;-66
2021/08/27 08:17:12;;;;;;;8.65;3.40;;;;;;;15.94;77.16;96601.09;5006288;28;20045;-67
2021/08/27 08:19:38;;;;;;;16.45;3.50;;;;;;;15.88;77.32;96605.47;5014674;28;20041;-66
2021/08/27 08:22:03;;;;;;;10.40;3.22;;;;;;;16.00;78.31;96605.00;5020157;28;20046;-67
2021/08/27 08:24:29;;;;;;;9.30;3.22;;;;;;;16.09;78.75;96595.50;5010854;28;20107;-66
2021/08/27 08:26:54;;;;;;;6.28;3.60;;;;;;;16.03;79.89;96597.91;5011163;28;20053;-66
2021/08/27 08:29:20;;;;;;;5.40;3.35;;;;;;;16.22;77.96;96604.84;4989899;28;20169;-65
2021/08/27 08:31:46;;;;;;;6.20;3.22;;;;;;;16.43;77.68;96593.63;5014276;28;20049;-67
2021/08/27 08:34:12;;;;;;;7.93;3.28;;;;;;;16.88;74.41;96600.38;5007752;28;20481;-66
2021/08/27 08:36:38;;;;;;;6.88;3.20;;;;;;;17.26;73.06;96597.59;5012937;28;20045;-67
2021/08/27 08:39:05;;;;;;;8.38;3.95;;;;;;;18.06;68.58;96607.25;5004950;28;20509;-66
2021/08/27 08:41:30;;;;;;;9.38;3.58;;;;;;;18.57;66.03;96603.69;5007940;28;20565;-66
2021/08/27 08:43:56;;;;;;;6.78;2.72;;;;;;;18.86;64.81;96596.47;5001312;28;20211;-66
2021/08/27 08:46:22;;;;;;;7.07;3.15;;;;;;;19.02;64.97;96592.22;5007064;28;20045;-68
2021/08/27 08:48:49;;;;;;;12.18;3.63;;;;;;;20.31;60.23;96597.06;5005994;28;20187;-65
2021/08/27 08:51:15;;;;;;;9.48;3.58;;;;;;;20.97;55.99;96595.81;4987560;28;20061;-67
2021/08/27 08:53:45;;;;;;;6.90;3.05;;;;;;;21.17;56.04;96592.91;5005404;28;20038;-66
2021/08/27 08:56:12;;;;;;;5.50;2.55;;;;;;;22.70;50.76;96585.16;4978300;28;20049;-65
2021/08/27 08:58:38;;;;;;;8.27;2.72;;;;;;;22.51;51.14;96584.97;5011884;28;20053;-66
2021/08/27 09:01:04;;;;;;;19.40;9.13;;;;;;;24.14;45.14;96594.00;4998830;28;20039;-67
2021/08/27 09:03:29;;;;;;;5.22;2.20;;;;;;;22.94;45.71;96582.75;5002993;28;20403;-66
2021/08/27 09:05:55;;;;;;;7.90;2.30;;;;;;;23.52;44.63;96584.31;5006934;28;20053;-66
2021/08/27 09:08:36;;;;;;;5.78;2.08;;;;;;;24.47;40.72;96585.88;5006201;28;20049;-65
2021/08/27 09:11:14;;;;;;;6.28;2.15;;;;;;;22.57;44.26;96593.56;5019423;28;20517;-67
2021/08/27 09:13:41;;;;;;;4.50;2.10;;;;;;;22.71;44.87;96579.13;4999796;28;20045;-67
2021/08/27 09:16:08;;;;;;;6.57;2.03;;;;;;;22.18;45.99;96587.19;5000970;28;20128;-67
2021/08/27 09:18:41;;;;;;;7.30;2.55;;;;;;;21.52;48.32;96589.59;5012997;28;20538;-67
2021/08/27 09:21:34;;;;;;;6.88;1.95;;;;;;;22.00;47.66;96593.34;5016894;28;20142;-65
2021/08/27 09:24:18;;;;;;;5.38;2.33;;;;;;;21.96;47.05;96589.88;5020229;28;20532;-67
2021/08/27 09:26:46;;;;;;;5.13;2.20;;;;;;;22.10;46.55;96594.25;5020761;28;20052;-67
2021/08/27 09:29:31;;;;;;;4.30;2.10;;;;;;;22.26;47.32;96587.78;5006767;28;20245;-67
2021/08/27 09:31:56;;;;;;;6.78;2.05;;;;;;;23.02;44.64;96591.66;5012664;28;20058;-65
2021/08/27 09:34:27;;;;;;;4.50;1.98;;;;;;;24.44;41.14;96595.19;5015849;28;20490;-65
2021/08/27 09:36:56;;;;;;;4.68;2.00;;;;;;;24.80;40.08;96591.72;5020027;28;20338;-66
2021/08/27 09:39:31;;;;;;;4.72;1.92;;;;;;;26.25;37.29;96584.13;5006743;28;21677;-66
2021/08/27 09:41:57;;;;;;;5.45;1.92;;;;;;;26.12;35.11;96577.91;5001090;28;20049;-66
2021/08/27 09:44:23;;;;;;;5.90;2.20;;;;;;;24.49;37.17;96575.00;4995587;28;20899;-65
2021/08/27 09:46:48;;;;;;;5.25;1.67;;;;;;;24.41;37.51;96582.88;5012906;28;20179;-65
2021/08/27 09:49:30;;;;;;;5.53;2.28;;;;;;;25.40;36.57;96572.00;5015582;28;20052;-65
2021/08/27 09:51:58;;;;;;;6.53;1.50;;;;;;;24.44;37.13;96570.00;5021108;28;20103;-66
2021/08/27 09:54:29;;;;;;;2.92;1.42;;;;;;;24.34;37.41;96571.97;5015806;28;20041;-66
2021/08/27 09:56:59;;;;;;;4.72;1.60;;;;;;;24.29;38.66;96574.59;5018593;28;20045;-66
2021/08/27 09:59:35;;;;;;;4.60;1.80;;;;;;;24.96;38.86;96573.06;5000433;28;20054;-66
2021/08/27 10:02:02;;;;;;;5.40;2.05;;;;;;;25.31;38.05;96569.97;5005424;28;20069;-67
2021/08/27 10:04:29;;;;;;;6.32;1.73;;;;;;;25.36;38.73;96564.50;5021416;28;20298;-66
2021/08/27 10:06:55;;;;;;;5.43;1.70;;;;;;;24.34;39.76;96566.38;5024681;28;20061;-66
2021/08/27 10:09:20;;;;;;;5.22;1.90;;;;;;;24.41;40.21;96576.50;5014406;28;20042;-66
2021/08/27 10:11:49;;;;;;;3.72;1.58;;;;;;;23.44;41.66;96572.63;5019778;28;20048;-66
2021/08/27 10:14:14;;;;;;;7.03;2.95;;;;;;;22.41;44.57;96577.72;5003781;28;20446;-66
2021/08/27 10:16:41;;;;;;;9.43;2.25;;;;;;;22.21;45.98;96571.59;5012342;28;20128;-66
2021/08/27 10:19:07;;;;;;;5.10;2.00;;;;;;;21.52;46.77;96567.31;5013062;28;20053;-67
2021/08/27 10:21:32;;;;;;;3.65;2.20;;;;;;;21.87;47.71;96559.88;5019889;28;20388;-66
2021/08/27 10:23:58;;;;;;;3.58;2.05;;;;;;;23.09;44.44;96567.06;5020332;28;20045;-66
2021/08/27 10:26:26;;;;;;;6.13;1.90;;;;;;;23.01;43.88;96574.13;5015275;28;20041;-67
2021/08/27 10:28:53;;;;;;;5.43;1.80;;;;;;;23.59;42.35;96567.28;5012787;28;20096;-66
2021/08/27 10:31:40;;;;;;;6.25;2.40;;;;;;;23.38;42.48;96571.63;5003364;28;20050;-67
2021/08/27 10:34:05;;;;;;;10.13;4.78;;;;;;;23.36;41.17;96573.34;4995010;28;20120;-67
2021/08/27 10:36:31;;;;;;;7.65;1.83;;;;;;;22.61;42.95;96566.31;5002519;28;20137;-66
2021/08/27 10:38:58;;;;;;;6.95;1.92;;;;;;;22.74;42.46;96571.09;4988126;28;20042;-66
2021/08/27 10:41:37;;;;;;;4.75;1.92;;;;;;;22.12;43.13;96567.47;4995648;28;20486;-66
2021/08/27 10:44:02;;;;;;;4.97;1.98;;;;;;;21.80;45.43;96567.69;4998036;28;20045;-66
2021/08/27 10:46:46;;;;;;;4.43;1.83;;;;;;;22.36;43.71;96572.72;5006854;28;20042;-66
2021/08/27 10:49:12;;;;;;;4.57;1.83;;;;;;;22.65;42.33;96569.78;5014336;28;20371;-66
2021/08/27 10:51:40;;;;;;;5.97;1.80;;;;;;;22.59;41.10;96568.00;5015956;28;20043;-66
2021/08/27 10:54:07;;;;;;;3.17;1.58;;;;;;;22.96;41.83;96571.91;5006181;28;20045;-66
2021/08/27 10:56:43;;;;;;;6.75;1.50;;;;;;;23.25;41.30;96557.72;5018119;28;20379;-66
2021/08/27 10:59:10;;;;;;;4.43;1.45;;;;;;;24.04;38.12;96563.19;5004384;28;20129;-66
2021/08/27 11:01:47;;;;;;;6.85;1.70;;;;;;;23.95;38.90;96557.56;5004679;28;20052;-66
2021/08/27 11:04:25;;;;;;;3.42;1.50;;;;;;;23.69;39.26;96570.13;5009183;28;20041;-66
2021/08/27 11:06:53;;;;;;;5.00;1.77;;;;;;;23.53;40.17;96568.31;5013966;28;20071;-65
2021/08/27 11:09:24;;;;;;;6.88;1.88;;;;;;;23.56;40.30;96562.59;5011473;28;20053;-65
2021/08/27 11:12:12;;;;;;;6.85;1.90;;;;;;;23.08;41.38;96562.75;5000208;28;20121;-66
2021/08/27 11:14:39;;;;;;;5.10;1.67;;;;;;;22.60;43.16;96566.75;5000077;28;20399;-66
2021/08/27 11:17:06;;;;;;;5.28;2.38;;;;;;;21.24;47.54;96577.22;4991885;28;20765;-66
2021/08/27 11:19:45;;;;;;;6.38;3.03;;;;;;;19.55;58.25;96584.03;5001117;28;20042;-66
2021/08/27 11:22:11;;;;;;;6.27;3.53;;;;;;;18.43;66.26;96585.31;4994007;28;20038;-67
2021/08/27 11:24:38;;;;;;;10.07;3.25;;;;;;;17.96;66.64;96589.56;5011737;28;20049;-65
2021/08/27 11:27:06;;;;;;;7.47;2.90;;;;;;;17.80;68.80;96585.84;5012591;28;20128;-66
2021/08/27 11:29:38;;;;;;;10.70;3.00;;;;;;;17.12;68.96;96591.00;5009054;28;20073;-66
2021/08/27 11:32:29;;;;;;;4.72;2.40;;;;;;;16.51;70.30;96588.84;5015879;28;20037;-66